createdAt,value
2023-05-05T00:02:16.009Z,56.25
2023-05-05T00:07:18.948Z,56.22
2023-05-05T00:12:20.590Z,55.62
2023-05-05T00:17:22.230Z,56.14
2023-05-05T00:22:25.199Z,55.26
2023-05-05T00:27:26.763Z,55.84
2023-05-05T00:32:28.413Z,58.89
2023-05-05T00:37:31.508Z,59.65
2023-05-05T00:42:39.821Z,59.68
2023-05-05T00:47:42.310Z,59.95
2023-05-05T00:52:45.272Z,60.23
2023-05-05T00:57:47.625Z,59.96
2023-05-05T01:02:49.419Z,59.91
2023-05-05T01:08:10.312Z,60.00
2023-05-05T01:13:22.531Z,60.05
2023-05-05T01:18:31.647Z,59.55
2023-05-05T01:24:06.659Z,60.59
2023-05-05T01:29:27.324Z,61.97
2023-05-05T01:34:34.639Z,62.25
2023-05-05T01:39:37.115Z,63.11
2023-05-05T01:44:39.165Z,62.50
2023-05-05T01:49:44.291Z,62.52
2023-05-05T01:54:46.595Z,62.25
2023-05-05T01:59:48.631Z,62.58
2023-05-05T02:04:52.800Z,63.22
2023-05-05T02:09:55.600Z,62.89
2023-05-05T02:14:59.801Z,62.96
2023-05-05T02:20:03.885Z,62.87
2023-05-05T02:25:06.902Z,63.86
2023-05-05T02:30:10.639Z,63.62
2023-05-05T02:35:15.851Z,64.73
2023-05-05T02:40:22.521Z,65.08
2023-05-05T02:45:26.765Z,65.61
2023-05-05T02:50:29.819Z,65.70
2023-05-05T02:55:44.067Z,65.52
2023-05-05T03:00:50.687Z,65.71
2023-05-05T03:06:00.655Z,66.42
2023-05-05T03:11:05.449Z,65.97
2023-05-05T03:16:09.459Z,64.66
2023-05-05T03:21:12.963Z,64.14
2023-05-05T03:26:17.384Z,64.01
2023-05-05T03:31:19.537Z,66.22
2023-05-05T03:36:28.557Z,65.66
2023-05-05T03:41:34.710Z,65.29
2023-05-05T03:46:37.273Z,65.57
2023-05-05T03:51:42.938Z,66.37
2023-05-05T03:56:44.719Z,66.48
2023-05-05T04:01:46.505Z,66.90
2023-05-05T04:06:49.701Z,66.44
2023-05-05T04:11:51.387Z,66.60
2023-05-05T04:16:53.585Z,66.81
2023-05-05T04:21:57.222Z,66.43
2023-05-05T04:26:59.338Z,66.68
2023-05-05T04:32:02.048Z,65.62
2023-05-05T04:37:05.714Z,64.56
2023-05-05T04:42:07.637Z,63.34
2023-05-05T04:47:12.052Z,62.88
2023-05-05T04:52:17.189Z,61.96
2023-05-05T04:57:18.881Z,59.32
2023-05-05T05:02:20.773Z,56.34
2023-05-05T05:07:26.044Z,53.56
2023-05-05T05:12:27.749Z,54.06
2023-05-05T05:17:29.532Z,54.83
2023-05-05T05:22:32.669Z,52.92
2023-05-05T05:27:34.386Z,50.73
2023-05-05T05:32:36.154Z,51.20
2023-05-05T05:37:39.421Z,50.71
2023-05-05T05:42:42.411Z,52.20
2023-05-05T05:47:44.750Z,53.06
2023-05-05T05:52:47.787Z,50.86
2023-05-05T05:57:50.212Z,48.87
2023-05-05T06:02:52.402Z,47.20
2023-05-05T06:07:59.320Z,46.43
2023-05-05T06:13:02.237Z,44.71
2023-05-05T06:18:05.725Z,44.21
2023-05-05T06:23:08.999Z,42.93
2023-05-05T06:28:14.249Z,41.95
2023-05-05T06:33:15.852Z,41.77
2023-05-05T06:38:18.867Z,42.83
2023-05-05T06:43:20.812Z,41.90
2023-05-05T06:48:28.521Z,41.18
2023-05-05T06:53:31.552Z,39.69
2023-05-05T06:58:33.216Z,38.46
2023-05-05T07:03:34.874Z,38.36
2023-05-05T07:08:37.939Z,38.24
2023-05-05T07:13:39.583Z,38.78
2023-05-05T07:18:41.251Z,38.15
2023-05-05T07:23:44.310Z,37.39
2023-05-05T07:28:45.966Z,38.02
2023-05-05T07:33:47.705Z,38.21
2023-05-05T07:38:50.675Z,42.11
2023-05-05T07:43:52.629Z,40.32
2023-05-05T07:48:54.370Z,40.66
2023-05-05T07:53:57.355Z,39.84
2023-05-05T07:58:59.146Z,40.03
2023-05-05T08:04:00.794Z,39.50
2023-05-05T08:09:04.049Z,39.84
2023-05-05T08:14:07.570Z,40.63
2023-05-05T08:19:21.134Z,39.64
2023-05-05T08:24:31.056Z,37.92
2023-05-05T08:29:32.716Z,37.85
2023-05-05T08:34:34.390Z,37.05
2023-05-05T08:39:37.636Z,37.33
2023-05-05T08:44:39.466Z,36.36
2023-05-05T08:49:45.361Z,36.10
2023-05-05T08:54:51.303Z,35.71
2023-05-05T08:59:53.531Z,36.28
2023-05-05T09:04:55.211Z,37.84
2023-05-05T09:09:59.073Z,38.96
2023-05-05T09:15:00.753Z,39.42
2023-05-05T09:20:03.829Z,39.29
2023-05-05T09:25:09.530Z,39.80
2023-05-05T09:30:14.940Z,39.75
2023-05-05T09:35:17.185Z,39.44
2023-05-05T09:40:21.196Z,41.41
2023-05-05T09:45:27.182Z,37.12
2023-05-05T09:50:28.897Z,36.20
2023-05-05T09:55:31.966Z,33.61
2023-05-05T10:00:39.668Z,33.86
2023-05-05T10:05:49.464Z,30.83
2023-05-05T10:10:53.842Z,31.43
2023-05-05T10:15:56.209Z,32.89
2023-05-05T10:20:59.343Z,32.03
2023-05-05T10:26:03.535Z,30.18
2023-05-05T10:31:16.428Z,30.54
2023-05-05T10:36:25.826Z,28.21
2023-05-05T10:41:29.554Z,26.48
2023-05-05T10:46:31.737Z,25.50
2023-05-05T10:51:41.398Z,25.36
2023-05-05T10:56:44.494Z,24.36
2023-05-05T11:01:46.108Z,25.23
2023-05-05T11:07:21.664Z,27.76
2023-05-05T11:12:24.639Z,29.13
2023-05-05T11:17:44.516Z,30.51
2023-05-05T11:23:22.958Z,28.46
2023-05-05T11:28:27.642Z,29.48
2023-05-05T11:33:30.133Z,28.88
2023-05-05T11:38:41.978Z,29.09
2023-05-05T11:43:44.981Z,29.80
2023-05-05T11:48:47.495Z,29.44
2023-05-05T11:53:49.903Z,30.36
2023-05-05T11:59:08.129Z,29.88
2023-05-05T12:04:11.686Z,30.78
2023-05-05T12:09:15.202Z,32.33
2023-05-05T12:14:18.222Z,31.29
2023-05-05T12:19:19.870Z,32.30
2023-05-05T12:24:21.498Z,30.64
2023-05-05T12:29:25.659Z,32.44
2023-05-05T12:34:27.431Z,33.34
2023-05-05T12:39:34.759Z,30.19
2023-05-05T12:44:38.333Z,30.68
2023-05-05T12:49:47.444Z,29.13
2023-05-05T12:54:56.595Z,29.99
2023-05-05T13:00:12.678Z,29.45
2023-05-05T13:05:14.394Z,28.13
2023-05-05T13:10:15.968Z,28.93
2023-05-05T13:15:19.005Z,28.34
2023-05-05T13:20:20.679Z,29.72
2023-05-05T13:25:22.280Z,28.03
2023-05-05T13:30:25.249Z,29.83
2023-05-05T13:35:26.830Z,29.47
2023-05-05T13:40:31.204Z,28.82
2023-05-05T13:45:34.368Z,28.67
2023-05-05T13:50:36.213Z,29.81
2023-05-05T13:55:37.818Z,29.91
2023-05-05T14:00:40.851Z,29.69
2023-05-05T14:05:42.730Z,29.74
2023-05-05T14:10:46.684Z,29.94
2023-05-05T14:15:50.382Z,30.24
2023-05-05T14:20:51.975Z,31.58
2023-05-05T14:25:54.034Z,31.66
2023-05-05T14:30:57.241Z,31.75
2023-05-05T14:35:59.111Z,33.12
2023-05-05T14:41:00.813Z,33.41
2023-05-05T14:46:03.833Z,34.60
2023-05-05T14:51:05.818Z,34.81
2023-05-05T14:56:07.572Z,36.52
2023-05-05T15:01:10.647Z,38.34
2023-05-05T15:06:12.338Z,44.37
2023-05-05T15:11:14.090Z,47.19
2023-05-05T15:16:18.491Z,49.56
2023-05-05T15:21:20.156Z,49.40
2023-05-05T15:26:21.803Z,52.57
2023-05-05T15:31:24.765Z,54.98
2023-05-05T15:36:26.490Z,57.16
2023-05-05T15:41:28.174Z,58.47
2023-05-05T15:46:32.423Z,58.36
2023-05-05T15:51:34.143Z,57.15
2023-05-05T15:56:35.857Z,55.83
2023-05-05T16:01:38.956Z,54.65
2023-05-05T16:06:40.690Z,52.69
2023-05-05T16:11:42.357Z,51.13
2023-05-05T16:16:45.371Z,50.53
2023-05-05T16:21:47.031Z,50.87
2023-05-05T16:26:48.842Z,51.56
2023-05-05T16:31:51.854Z,53.27
2023-05-05T16:36:53.636Z,54.02
2023-05-05T16:41:55.275Z,55.28
2023-05-05T16:46:58.337Z,57.02
2023-05-05T16:52:00.028Z,58.58
2023-05-05T16:57:01.713Z,60.43
2023-05-05T17:02:04.790Z,58.39
2023-05-05T17:07:06.536Z,59.84
2023-05-05T17:12:08.219Z,58.57
2023-05-05T17:17:11.253Z,59.46
2023-05-05T17:22:12.975Z,58.27
2023-05-05T17:27:14.708Z,58.35
2023-05-05T17:32:19.940Z,57.81
2023-05-05T17:37:27.298Z,58.21
2023-05-05T17:42:28.982Z,57.73
2023-05-05T17:47:34.720Z,57.23
2023-05-05T17:52:38.682Z,56.98
2023-05-05T17:57:40.372Z,57.28
2023-05-05T18:02:43.384Z,56.95
2023-05-05T18:07:45.122Z,56.89
2023-05-05T18:12:46.784Z,56.14
2023-05-05T18:17:49.815Z,56.37
2023-05-05T18:22:51.498Z,56.43
2023-05-05T18:27:53.105Z,56.27
2023-05-05T18:32:56.377Z,56.05
2023-05-05T18:37:58.061Z,56.51
2023-05-05T18:43:01.522Z,56.62
2023-05-05T18:48:05.162Z,56.77
2023-05-05T18:53:08.821Z,56.86
2023-05-05T18:58:10.555Z,57.11
2023-05-05T19:03:14.768Z,56.22
2023-05-05T19:08:16.715Z,56.73
2023-05-05T19:13:18.501Z,56.77
2023-05-05T19:18:21.602Z,56.67
2023-05-05T19:23:25.757Z,56.86
2023-05-05T19:28:27.468Z,57.11
2023-05-05T19:33:30.597Z,57.05
2023-05-05T19:38:32.283Z,56.78
2023-05-05T19:43:36.448Z,56.43
2023-05-05T19:48:42.836Z,56.54
2023-05-05T19:53:44.520Z,56.59
2023-05-05T19:58:53.814Z,55.15
2023-05-05T20:03:57.087Z,57.16
2023-05-05T20:09:01.721Z,56.76
2023-05-05T20:14:06.411Z,57.63
2023-05-05T20:19:11.675Z,56.94
2023-05-05T20:24:13.288Z,57.86
2023-05-05T20:29:16.354Z,58.10
2023-05-05T20:34:19.397Z,58.27
2023-05-05T20:39:21.116Z,58.72
2023-05-05T20:44:22.731Z,58.94
2023-05-05T20:49:25.775Z,59.17
2023-05-05T20:54:31.781Z,59.38
2023-05-05T20:59:35.321Z,59.65
2023-05-05T21:04:38.358Z,59.48
2023-05-05T21:09:40.108Z,59.82
2023-05-05T21:14:43.156Z,60.02
2023-05-05T21:19:46.111Z,60.10
2023-05-05T21:24:47.947Z,59.83
2023-05-05T21:29:50.691Z,59.92
2023-05-05T21:34:53.672Z,59.95
2023-05-05T21:39:55.363Z,60.09
2023-05-05T21:44:57.025Z,60.42
2023-05-05T21:50:00.024Z,60.51
2023-05-05T21:55:02.148Z,60.63
2023-05-05T22:00:07.418Z,61.09
2023-05-05T22:05:16.402Z,60.84
2023-05-05T22:10:18.077Z,61.14
2023-05-05T22:15:19.621Z,61.50
2023-05-05T22:20:22.697Z,61.93
2023-05-05T22:25:24.412Z,62.28
2023-05-05T22:30:26.049Z,62.81
2023-05-05T22:35:29.048Z,63.17
2023-05-05T22:40:30.897Z,63.73
2023-05-05T22:45:32.496Z,63.91
2023-05-05T22:50:35.970Z,64.04
2023-05-05T22:55:37.640Z,63.85
2023-05-05T23:00:39.322Z,64.18
2023-05-05T23:05:42.292Z,64.50
2023-05-05T23:10:44.343Z,64.33
2023-05-05T23:15:45.927Z,64.83
2023-05-05T23:20:48.872Z,65.26
2023-05-05T23:25:50.445Z,66.34
2023-05-05T23:30:52.059Z,66.88
2023-05-05T23:35:55.156Z,67.38
2023-05-05T23:40:56.771Z,67.06
2023-05-05T23:45:58.358Z,67.32
2023-05-05T23:51:01.365Z,67.52
2023-05-05T23:56:03.474Z,67.14
